createdAt,value
2018-02-16T00:01:16.661Z,27.40
2018-02-16T00:03:44.329Z,27.40
2018-02-16T00:06:11.980Z,27.87
2018-02-16T00:08:39.619Z,27.03
2018-02-16T00:11:07.284Z,26.90
2018-02-16T00:13:34.982Z,28.07
2018-02-16T00:16:03.444Z,26.00
2018-02-16T00:18:31.077Z,27.33
2018-02-16T00:20:58.721Z,26.73
2018-02-16T00:23:26.354Z,27.23
2018-02-16T00:25:53.996Z,27.20
2018-02-16T00:28:21.650Z,28.40
2018-02-16T00:30:49.279Z,28.40
2018-02-16T00:33:16.955Z,27.27
2018-02-16T00:35:44.627Z,27.90
2018-02-16T00:38:12.271Z,27.47
2018-02-16T00:40:39.933Z,27.93
2018-02-16T00:43:08.327Z,27.87
2018-02-16T00:45:36.729Z,25.97
2018-02-16T00:48:04.405Z,24.73
2018-02-16T00:50:32.063Z,25.00
2018-02-16T00:52:59.727Z,24.33
2018-02-16T00:55:27.363Z,25.07
2018-02-16T00:57:55.063Z,23.27
2018-02-16T01:00:22.728Z,24.90
2018-02-16T01:02:50.374Z,24.23
2018-02-16T01:05:18.023Z,23.03
2018-02-16T01:07:45.650Z,24.67
2018-02-16T01:10:13.323Z,23.17
2018-02-16T01:12:41.787Z,24.13
2018-02-16T01:15:09.412Z,24.77
2018-02-16T01:17:37.826Z,23.90
2018-02-16T01:20:06.732Z,23.67
2018-02-16T01:22:35.167Z,24.17
2018-02-16T01:25:02.833Z,23.67
2018-02-16T01:27:30.477Z,24.63
2018-02-16T01:29:58.171Z,24.30
2018-02-16T01:32:25.819Z,24.17
2018-02-16T01:34:53.504Z,24.17
2018-02-16T01:37:21.169Z,24.07
2018-02-16T01:39:48.790Z,24.07
2018-02-16T01:42:16.490Z,24.93
2018-02-16T01:44:44.123Z,24.70
2018-02-16T01:47:12.556Z,24.83
2018-02-16T01:49:52.115Z,26.10
2018-02-16T01:52:19.750Z,25.03
2018-02-16T01:54:47.411Z,24.50
2018-02-16T01:57:15.026Z,24.40
2018-02-16T01:59:42.662Z,26.70
2018-02-16T02:02:10.299Z,26.80
2018-02-16T02:04:37.975Z,26.17
2018-02-16T02:07:05.635Z,25.47
2018-02-16T02:09:33.275Z,26.00
2018-02-16T02:12:01.716Z,27.03
2018-02-16T02:14:29.347Z,27.07
2018-02-16T02:16:57.018Z,27.10
2018-02-16T02:19:24.695Z,27.83
2018-02-16T02:21:52.330Z,26.30
2018-02-16T02:24:20.787Z,25.90
2018-02-16T02:26:48.431Z,26.20
2018-02-16T02:29:16.841Z,27.13
2018-02-16T02:31:44.496Z,24.70
2018-02-16T02:34:12.914Z,24.23
2018-02-16T02:36:41.326Z,25.17
2018-02-16T02:39:08.968Z,25.40
2018-02-16T02:41:36.612Z,25.37
2018-02-16T02:44:04.237Z,25.37
2018-02-16T02:46:31.947Z,24.97
2018-02-16T02:48:59.640Z,25.50
2018-02-16T02:51:28.050Z,25.63
2018-02-16T02:53:56.484Z,26.20
2018-02-16T02:56:24.119Z,25.43
2018-02-16T02:58:51.799Z,25.23
2018-02-16T03:01:19.450Z,26.10
2018-02-16T03:03:47.079Z,25.70
2018-02-16T03:06:14.763Z,26.30
2018-02-16T03:08:42.388Z,26.43
2018-02-16T03:11:10.862Z,25.83
2018-02-16T03:13:38.569Z,25.43
2018-02-16T03:16:06.229Z,26.20
2018-02-16T03:18:33.915Z,26.83
2018-02-16T03:21:01.531Z,26.40
2018-02-16T03:23:29.183Z,27.07
2018-02-16T03:25:56.877Z,26.70
2018-02-16T03:28:24.531Z,27.23
2018-02-16T03:30:52.209Z,26.60
2018-02-16T03:33:20.616Z,26.33
2018-02-16T03:35:48.272Z,27.10
2018-02-16T03:38:16.744Z,25.60
2018-02-16T03:40:45.191Z,26.50
2018-02-16T03:43:13.604Z,25.63
2018-02-16T03:45:41.258Z,25.80
2018-02-16T03:48:08.910Z,25.87
2018-02-16T03:50:36.591Z,25.70
2018-02-16T03:53:04.260Z,25.63
2018-02-16T03:55:31.952Z,27.10
2018-02-16T03:57:59.600Z,26.30
2018-02-16T04:00:27.289Z,26.47
2018-02-16T04:02:54.923Z,26.40
2018-02-16T04:05:22.551Z,26.27
2018-02-16T04:07:50.215Z,27.53
2018-02-16T04:10:17.845Z,26.67
2018-02-16T04:12:46.284Z,25.47
2018-02-16T04:15:13.972Z,24.97
2018-02-16T04:17:41.594Z,23.73
2018-02-16T04:20:09.256Z,23.97
2018-02-16T04:22:36.947Z,24.80
2018-02-16T04:25:04.603Z,26.23
2018-02-16T04:27:33.047Z,26.13
2018-02-16T04:30:00.687Z,26.00
2018-02-16T04:32:28.370Z,25.80
2018-02-16T04:34:56.006Z,25.67
2018-02-16T04:37:23.675Z,26.00
2018-02-16T04:39:51.311Z,25.47
2018-02-16T04:42:18.951Z,24.93
2018-02-16T04:44:46.608Z,24.97
2018-02-16T04:47:15.020Z,23.63
2018-02-16T04:49:42.681Z,25.20
2018-02-16T04:52:10.335Z,24.73
2018-02-16T04:54:37.963Z,25.67
2018-02-16T04:57:05.604Z,25.63
2018-02-16T04:59:33.310Z,26.90
2018-02-16T05:02:01.232Z,25.97
2018-02-16T05:04:28.899Z,26.03
2018-02-16T05:06:56.535Z,25.77
2018-02-16T05:09:24.196Z,25.10
2018-02-16T05:11:51.830Z,24.23
2018-02-16T05:14:19.494Z,24.53
2018-02-16T05:16:47.155Z,23.90
2018-02-16T05:19:14.793Z,24.50
2018-02-16T05:21:42.491Z,25.40
2018-02-16T05:24:10.855Z,26.00
2018-02-16T05:26:39.315Z,24.03
2018-02-16T05:29:06.979Z,25.33
2018-02-16T05:31:34.631Z,23.13
2018-02-16T05:34:03.056Z,23.83
2018-02-16T05:36:30.668Z,23.90
2018-02-16T05:38:58.366Z,23.33
2018-02-16T05:41:26.031Z,24.73
2018-02-16T05:43:54.423Z,23.57
2018-02-16T05:46:22.100Z,24.47
2018-02-16T05:48:49.726Z,25.87
2018-02-16T05:51:17.387Z,24.50
2018-02-16T05:53:45.079Z,25.10
2018-02-16T05:56:12.716Z,26.70
2018-02-16T05:58:40.383Z,26.90
2018-02-16T06:01:08.021Z,25.37
2018-02-16T06:03:35.663Z,25.20
2018-02-16T06:06:03.332Z,24.90
2018-02-16T06:08:31.010Z,25.33
2018-02-16T06:10:58.664Z,25.63
2018-02-16T06:13:26.302Z,25.50
2018-02-16T06:15:53.967Z,27.23
2018-02-16T06:18:21.620Z,26.13
2018-02-16T06:20:49.292Z,25.53
2018-02-16T06:23:17.688Z,25.83
2018-02-16T06:25:46.156Z,24.87
2018-02-16T06:28:13.776Z,24.43
2018-02-16T06:30:41.446Z,27.40
2018-02-16T06:33:09.127Z,26.53
2018-02-16T06:35:36.810Z,25.33
2018-02-16T06:38:04.490Z,26.63
2018-02-16T06:40:32.144Z,26.40
2018-02-16T06:42:59.799Z,28.50
2018-02-16T06:45:27.478Z,32.97
2018-02-16T06:47:55.106Z,28.23
2018-02-16T06:50:22.784Z,27.93
2018-02-16T06:52:50.431Z,28.00
2018-02-16T06:55:18.256Z,28.43
2018-02-16T06:57:46.699Z,28.47
2018-02-16T07:00:14.330Z,29.30
2018-02-16T07:02:42.003Z,28.80
2018-02-16T07:05:09.630Z,27.93
2018-02-16T07:07:37.428Z,26.87
2018-02-16T07:10:05.071Z,25.83
2018-02-16T07:12:32.719Z,26.87
2018-02-16T07:15:00.383Z,25.80
2018-02-16T07:17:28.019Z,26.10
2018-02-16T07:19:55.684Z,23.50
2018-02-16T07:22:23.340Z,23.27
2018-02-16T07:24:51.002Z,24.10
2018-02-16T07:27:18.663Z,24.33
2018-02-16T07:29:46.339Z,23.90
2018-02-16T07:32:13.975Z,24.33
2018-02-16T07:34:42.375Z,24.17
2018-02-16T07:37:10.803Z,24.17
2018-02-16T07:39:38.467Z,24.13
2018-02-16T07:42:07.053Z,25.47
2018-02-16T07:44:34.720Z,24.07
2018-02-16T07:47:02.362Z,25.10
2018-02-16T07:49:30.063Z,27.33
2018-02-16T07:51:57.736Z,24.07
2018-02-16T07:54:25.392Z,29.17
2018-02-16T07:56:53.074Z,24.60
2018-02-16T07:59:20.783Z,26.43
2018-02-16T08:01:48.423Z,25.43
2018-02-16T08:04:16.133Z,25.00
2018-02-16T08:06:43.759Z,25.07
2018-02-16T08:09:12.223Z,22.77
2018-02-16T08:11:39.858Z,23.70
2018-02-16T08:14:08.275Z,23.53
2018-02-16T08:16:35.898Z,23.87
2018-02-16T08:19:03.523Z,23.53
2018-02-16T08:21:31.967Z,25.27
2018-02-16T08:23:59.606Z,24.50
2018-02-16T08:26:27.282Z,23.00
2018-02-16T08:28:55.025Z,22.17
2018-02-16T08:31:22.702Z,21.70
2018-02-16T08:33:50.408Z,22.20
2018-02-16T08:36:18.047Z,22.57
2018-02-16T08:38:46.474Z,21.23
2018-02-16T08:41:16.260Z,22.87
2018-02-16T08:43:43.888Z,23.73
2018-02-16T08:46:12.330Z,23.90
2018-02-16T08:48:39.986Z,23.10
2018-02-16T08:51:08.427Z,26.37
2018-02-16T08:53:36.119Z,25.43
2018-02-16T08:56:03.765Z,25.60
2018-02-16T08:58:32.207Z,25.40
2018-02-16T09:00:59.846Z,26.37
2018-02-16T09:03:28.280Z,26.40
2018-02-16T09:05:55.976Z,26.30
2018-02-16T09:08:23.611Z,26.33
2018-02-16T09:10:51.291Z,26.33
2018-02-16T09:13:18.914Z,25.90
2018-02-16T09:15:46.591Z,25.43
2018-02-16T09:18:15.022Z,25.63
2018-02-16T09:20:42.655Z,24.23
2018-02-16T09:23:10.336Z,25.33
2018-02-16T09:25:38.735Z,25.20
2018-02-16T09:28:06.430Z,24.50
2018-02-16T09:30:34.113Z,24.13
2018-02-16T09:33:02.833Z,24.23
2018-02-16T09:35:31.967Z,24.23
2018-02-16T09:37:59.594Z,22.57
2018-02-16T09:40:27.754Z,24.03
2018-02-16T09:42:55.335Z,24.10
2018-02-16T09:45:22.933Z,22.77
2018-02-16T09:47:50.567Z,24.30
2018-02-16T09:50:18.962Z,22.33
2018-02-16T09:52:46.565Z,22.50
2018-02-16T09:55:14.905Z,22.63
2018-02-16T09:57:42.509Z,21.80
2018-02-16T10:00:10.117Z,21.87
2018-02-16T10:02:37.706Z,22.77
2018-02-16T10:05:06.275Z,22.50
2018-02-16T10:07:53.571Z,24.50
2018-02-16T10:10:21.174Z,22.53
2018-02-16T10:12:49.553Z,23.07
2018-02-16T10:15:17.149Z,23.07
2018-02-16T10:17:44.922Z,22.07
2018-02-16T10:20:12.498Z,21.70
2018-02-16T10:22:40.113Z,20.43
2018-02-16T10:25:07.722Z,20.13
2018-02-16T10:27:36.066Z,18.30
2018-02-16T10:30:07.148Z,18.87
2018-02-16T11:14:08.129Z,15.10
2018-02-16T11:16:35.706Z,15.77
2018-02-16T11:19:03.310Z,16.40
2018-02-16T11:21:30.915Z,16.03
2018-02-16T11:23:58.489Z,16.20
2018-02-16T11:26:26.094Z,16.90
2018-02-16T11:28:54.482Z,15.43
2018-02-16T11:31:22.091Z,15.93
2018-02-16T11:33:50.457Z,15.93
2018-02-16T11:36:18.033Z,16.97
2018-02-16T11:38:45.630Z,15.37
2018-02-16T11:41:13.354Z,15.43
2018-02-16T11:43:41.718Z,15.23
2018-02-16T11:46:09.314Z,15.50
2018-02-16T11:48:36.913Z,17.37
2018-02-16T11:51:04.525Z,16.83
2018-02-16T11:53:32.334Z,16.50
2018-02-16T11:55:59.929Z,16.27
2018-02-16T11:58:27.530Z,17.40
2018-02-16T12:00:55.165Z,17.53
2018-02-16T12:03:22.766Z,17.47
2018-02-16T12:05:50.507Z,16.77
2018-02-16T12:08:18.156Z,18.50
2018-02-16T12:10:45.807Z,17.77
2018-02-16T12:13:14.399Z,18.13
2018-02-16T12:15:42.019Z,17.73
2018-02-16T12:18:09.870Z,17.10
2018-02-16T12:20:37.443Z,17.07
2018-02-16T12:23:05.042Z,16.53
2018-02-16T12:25:32.906Z,16.30
2018-02-16T12:28:00.478Z,16.63
2018-02-16T12:30:28.074Z,17.07
2018-02-16T12:32:55.662Z,17.30
2018-02-16T12:35:23.265Z,16.50
2018-02-16T12:37:50.866Z,16.13
2018-02-16T12:40:18.449Z,16.60
2018-02-16T12:42:46.052Z,15.07
2018-02-16T12:45:14.399Z,14.67
2018-02-16T12:47:41.997Z,14.70
2018-02-16T12:50:09.574Z,14.53
2018-02-16T12:52:37.432Z,15.33
2018-02-16T12:55:05.070Z,15.13
2018-02-16T12:57:32.650Z,14.03
2018-02-16T13:00:00.254Z,13.73
2018-02-16T13:02:27.826Z,12.47
2018-02-16T13:04:55.426Z,14.33
2018-02-16T13:07:23.030Z,14.17
2018-02-16T13:09:51.370Z,13.40
2018-02-16T13:12:18.974Z,13.93
2018-02-16T13:14:46.617Z,14.23
2018-02-16T13:17:14.253Z,14.07
2018-02-16T13:19:42.098Z,14.63
2018-02-16T13:22:09.909Z,12.90
2018-02-16T13:24:37.481Z,14.13
2018-02-16T13:27:05.081Z,13.77
2018-02-16T13:29:32.677Z,12.70
2018-02-16T13:32:00.257Z,13.87
2018-02-16T13:34:27.864Z,14.13
2018-02-16T13:36:55.438Z,14.33
2018-02-16T13:39:23.034Z,14.80
2018-02-16T13:41:50.610Z,13.73
2018-02-16T13:44:18.209Z,14.57
2018-02-16T13:46:45.782Z,15.00
2018-02-16T13:49:13.386Z,15.40
2018-02-16T13:51:40.974Z,15.33
2018-02-16T13:54:08.582Z,14.93
2018-02-16T13:56:36.162Z,15.03
2018-02-16T13:59:03.771Z,15.00
2018-02-16T14:01:32.142Z,15.03
2018-02-16T14:03:59.714Z,14.30
2018-02-16T14:06:27.495Z,14.33
2018-02-16T14:08:55.085Z,17.47
2018-02-16T14:11:22.686Z,17.50
2018-02-16T14:13:50.263Z,17.10
2018-02-16T14:16:17.865Z,16.50
2018-02-16T14:18:45.443Z,16.23
2018-02-16T14:21:19.061Z,17.37
2018-02-16T14:23:48.094Z,16.67
2018-02-16T14:26:15.702Z,15.83
2018-02-16T14:28:44.102Z,16.40
2018-02-16T14:42:57.282Z,18.87
2018-02-16T14:45:24.846Z,17.63
2018-02-16T14:47:52.458Z,16.70
2018-02-16T14:50:20.059Z,17.27
2018-02-16T14:52:47.646Z,16.57
2018-02-16T14:55:15.475Z,15.87
2018-02-16T14:57:43.041Z,16.00
2018-02-16T15:00:11.410Z,16.73
2018-02-16T15:02:39.011Z,17.33
2018-02-16T15:05:06.586Z,17.73
2018-02-16T15:07:34.194Z,19.10
2018-02-16T15:10:02.535Z,18.97
2018-02-16T15:12:30.101Z,19.80
2018-02-16T15:14:57.698Z,19.93
2018-02-16T15:17:25.265Z,22.03
2018-02-16T15:19:53.654Z,20.93
2018-02-16T15:22:23.025Z,22.03
2018-02-16T15:24:50.626Z,21.90
2018-02-16T15:27:18.230Z,22.10
2018-02-16T15:29:45.989Z,21.87
2018-02-16T15:32:13.585Z,21.87
2018-02-16T15:34:41.162Z,21.90
2018-02-16T15:37:08.762Z,22.13
2018-02-16T15:39:36.382Z,22.27
2018-02-16T15:42:04.745Z,22.83
2018-02-16T15:44:32.350Z,22.00
2018-02-16T15:47:01.405Z,22.30
2018-02-16T15:49:29.242Z,23.47
2018-02-16T15:51:56.898Z,23.07
2018-02-16T15:54:24.570Z,22.07
2018-02-16T15:56:52.346Z,21.33
2018-02-16T16:05:06.442Z,21.43
2018-02-16T16:07:34.010Z,21.37
2018-02-16T16:10:01.614Z,22.03
2018-02-16T16:12:29.226Z,21.57
2018-02-16T16:14:56.790Z,21.47
2018-02-16T16:17:25.139Z,21.37
2018-02-16T16:19:52.769Z,21.17
2018-02-16T16:22:20.370Z,22.47
2018-02-16T16:24:48.189Z,21.33
2018-02-16T16:27:15.766Z,21.13
2018-02-16T16:29:43.828Z,20.87
2018-02-16T16:32:14.414Z,20.87
2018-02-16T16:34:42.009Z,19.63
2018-02-16T16:37:09.607Z,19.90
2018-02-16T16:39:38.369Z,19.90
2018-02-16T16:42:06.738Z,20.27
2018-02-16T16:44:34.312Z,20.57
2018-02-16T16:47:02.038Z,21.70
2018-02-16T16:49:29.662Z,19.97
2018-02-16T16:51:57.832Z,19.47
2018-02-16T16:54:26.701Z,20.00
2018-02-16T16:59:49.890Z,20.37
2018-02-16T17:02:17.498Z,20.03
2018-02-16T17:04:45.317Z,19.80
2018-02-16T17:07:13.137Z,21.03
2018-02-16T17:09:41.278Z,21.10
2018-02-16T17:12:08.934Z,19.67
2018-02-16T17:14:37.574Z,19.93
2018-02-16T17:17:05.919Z,19.10
2018-02-16T17:19:33.527Z,20.27
2018-02-16T17:22:01.107Z,19.77
2018-02-16T17:24:28.722Z,20.50
2018-02-16T17:26:56.334Z,19.73
2018-02-16T17:29:25.078Z,19.73
2018-02-16T17:31:57.665Z,19.33
2018-02-16T17:34:25.322Z,19.43
2018-02-16T17:36:53.278Z,19.87
2018-02-16T17:39:21.657Z,19.40
2018-02-16T17:41:49.253Z,19.30
2018-02-16T17:44:16.854Z,19.30
2018-02-16T17:46:44.437Z,19.63
2018-02-16T17:49:12.039Z,21.70
2018-02-16T17:51:39.650Z,20.10
2018-02-16T17:54:08.005Z,20.37
2018-02-16T17:56:35.620Z,20.03
2018-02-16T17:59:03.965Z,19.40
2018-02-16T18:01:32.329Z,21.40
2018-02-16T18:03:59.940Z,20.40
2018-02-16T18:06:27.528Z,20.10
2018-02-16T18:08:55.475Z,20.47
2018-02-16T18:11:23.055Z,20.23
2018-02-16T18:13:50.666Z,20.43
2018-02-16T18:16:18.274Z,19.60
2018-02-16T18:18:45.850Z,20.27
2018-02-16T18:21:13.455Z,20.03
2018-02-16T18:23:41.029Z,20.17
2018-02-16T18:26:08.630Z,21.03
2018-02-16T18:28:37.003Z,19.87
2018-02-16T18:31:04.573Z,19.77
2018-02-16T18:33:32.173Z,21.97
2018-02-16T18:35:59.745Z,22.77
2018-02-16T18:38:27.337Z,20.57
2018-02-16T18:40:54.929Z,20.70
2018-02-16T18:43:22.501Z,20.37
2018-02-16T18:45:50.126Z,20.63
2018-02-16T18:48:17.698Z,19.63
2018-02-16T18:50:45.313Z,20.30
2018-02-16T18:53:12.913Z,20.03
2018-02-16T18:55:40.485Z,19.90
2018-02-16T18:58:08.086Z,20.37
2018-02-16T19:00:35.651Z,18.67
2018-02-16T19:03:03.254Z,19.17
2018-02-16T19:05:30.849Z,19.77
2018-02-16T19:07:58.415Z,20.30
2018-02-16T19:10:26.022Z,19.63
2018-02-16T19:12:53.598Z,16.73
2018-02-16T19:15:21.203Z,17.77
2018-02-16T19:17:48.846Z,19.23
2018-02-16T19:20:17.177Z,20.33
2018-02-16T19:22:44.788Z,18.23
2018-02-16T19:25:12.366Z,19.03
2018-02-16T19:27:39.966Z,18.70
2018-02-16T19:30:07.571Z,18.70
2018-02-16T19:32:41.030Z,18.93
2018-02-16T19:35:08.633Z,19.57
2018-02-16T19:37:36.210Z,18.97
2018-02-16T19:40:04.578Z,19.07
2018-02-16T19:42:32.157Z,19.73
2018-02-16T19:44:59.757Z,18.27
2018-02-16T19:47:27.354Z,18.47
2018-02-16T19:49:54.929Z,20.30
2018-02-16T19:52:23.298Z,20.33
2018-02-16T19:54:50.882Z,18.97
2018-02-16T19:57:18.482Z,20.23
2018-02-16T19:59:46.091Z,20.27
2018-02-16T20:02:13.670Z,19.63
2018-02-16T20:04:41.273Z,19.47
2018-02-16T20:07:08.854Z,21.13
2018-02-16T20:09:36.453Z,21.37
2018-02-16T20:12:04.825Z,21.67
2018-02-16T20:14:47.189Z,20.70
2018-02-16T20:17:15.566Z,27.90
2018-02-16T20:19:43.150Z,21.20
2018-02-16T20:22:10.790Z,21.97
2018-02-16T20:24:39.258Z,20.20
2018-02-16T20:27:06.890Z,20.07
2018-02-16T20:29:37.908Z,19.67
2018-02-16T20:32:16.673Z,19.23
2018-02-16T20:34:44.378Z,19.57
2018-02-16T20:37:13.405Z,19.23
2018-02-16T20:39:41.143Z,18.47
2018-02-16T20:42:08.794Z,19.23
2018-02-16T20:44:36.447Z,18.93
2018-02-16T20:47:04.118Z,18.60
2018-02-16T20:49:32.040Z,19.20
2018-02-16T20:51:59.816Z,18.53
2018-02-16T20:54:51.194Z,19.47
2018-02-16T20:57:19.086Z,20.83
2018-02-16T20:59:46.766Z,22.03
2018-02-16T21:02:14.394Z,21.50
2018-02-16T21:04:42.262Z,20.97
2018-02-16T21:07:10.157Z,21.87
2018-02-16T21:09:54.370Z,22.60
2018-02-16T21:12:22.156Z,22.03
2018-02-16T21:14:49.841Z,21.33
2018-02-16T21:17:18.518Z,22.17
2018-02-16T21:19:46.586Z,22.57
2018-02-16T21:22:14.977Z,21.53
2018-02-16T21:24:42.633Z,20.57
2018-02-16T21:27:10.288Z,20.40
2018-02-16T21:29:37.951Z,20.77
2018-02-16T21:32:23.662Z,21.63
2018-02-16T21:34:51.680Z,20.47
2018-02-16T21:37:20.080Z,21.73
2018-02-16T21:39:48.487Z,20.37
2018-02-16T21:42:16.944Z,21.20
2018-02-16T21:44:44.554Z,25.80
2018-02-16T21:47:12.375Z,22.57
2018-02-16T21:49:40.022Z,22.83
2018-02-16T21:52:07.644Z,22.03
2018-02-16T21:54:35.338Z,22.27
2018-02-16T21:57:02.929Z,23.60
2018-02-16T21:59:30.685Z,22.77
2018-02-16T22:01:58.372Z,22.67
2018-02-16T22:04:26.058Z,22.07
2018-02-16T22:06:53.943Z,22.07
2018-02-16T22:09:22.658Z,24.67
2018-02-16T22:11:50.365Z,24.90
2018-02-16T22:14:18.013Z,26.43
2018-02-16T22:16:54.224Z,29.37
2018-02-16T22:19:22.794Z,26.40
2018-02-16T22:21:50.374Z,23.30
2018-02-16T22:24:18.063Z,21.80
2018-02-16T22:26:45.729Z,21.70
2018-02-16T22:29:13.377Z,23.03
2018-02-16T22:31:41.064Z,23.57
2018-02-16T22:34:08.775Z,22.87
2018-02-16T22:36:36.477Z,22.57
2018-02-16T22:39:04.218Z,22.97
2018-02-16T22:41:31.846Z,25.30
2018-02-16T22:43:59.482Z,23.20
2018-02-16T22:46:27.165Z,22.97
2018-02-16T22:48:54.812Z,23.57
2018-02-16T22:51:22.447Z,23.27
2018-02-16T22:53:50.098Z,22.90
2018-02-16T22:56:17.834Z,22.00
2018-02-16T22:58:45.414Z,22.73
2018-02-16T23:01:13.023Z,22.70
2018-02-16T23:03:40.599Z,23.53
2018-02-16T23:06:08.205Z,23.00
2018-02-16T23:08:35.778Z,22.87
2018-02-16T23:11:03.383Z,23.23
2018-02-16T23:13:30.958Z,23.97
2018-02-16T23:15:58.562Z,24.17
2018-02-16T23:18:26.169Z,24.17
2018-02-16T23:26:42.474Z,26.07
2018-02-16T23:29:10.082Z,24.73
2018-02-16T23:31:37.674Z,26.00
2018-02-16T23:34:06.042Z,23.70
2018-02-16T23:36:33.626Z,24.43
2018-02-16T23:39:01.431Z,24.47
2018-02-16T23:41:29.033Z,25.57
2018-02-16T23:43:56.558Z,25.30
2018-02-16T23:46:24.171Z,27.07
2018-02-16T23:48:52.515Z,27.23
2018-02-16T23:51:20.118Z,26.10
2018-02-16T23:53:47.735Z,25.77
2018-02-16T23:56:15.321Z,25.73
2018-02-16T23:58:42.934Z,27.67
